Time;durP1;ratioP1;P1;durP2;ratioP2;P2;SDS_P1;SDS_P2;PMS_P1;PMS_P2;Temp;Humidity;BMP_temperature;BMP_pressure;BME280_temperature;BME280_humidity;BME280_pressure;Samples;Min_cycle;Max_cycle;Signal;HPM_P1;HPM_P2
2022/02/15 00:00:56;;;;;;;159.93;70.80;;;;;;;-4.23;100.00;102229.39;1746240;82;21573;-84
2022/02/15 00:03:23;;;;;;;185.45;76.90;;;;;;;-4.24;100.00;102231.49;1729884;82;21027;-83
2022/02/15 00:05:51;;;;;;;150.00;59.95;;;;;;;-4.27;100.00;102225.08;1746274;81;21123;-83
2022/02/15 00:08:17;;;;;;;175.85;70.70;;;;;;;-4.29;100.00;102224.23;1729987;82;21059;-83
2022/02/15 00:10:47;;;;;;;167.53;69.17;;;;;;;-4.32;100.00;102216.13;1746181;80;21021;-82
2022/02/15 00:13:14;;;;;;;211.03;87.70;;;;;;;-4.32;100.00;102222.91;1700959;83;21643;-83
2022/02/15 00:15:42;;;;;;;123.58;52.43;;;;;;;-4.35;100.00;102217.77;1714239;82;21018;-83
2022/02/15 00:18:10;;;;;;;96.60;45.78;;;;;;;-4.42;100.00;102214.31;1730283;82;21513;-83
2022/02/15 00:20:38;;;;;;;93.17;46.35;;;;;;;-4.49;100.00;102218.45;1746134;80;21207;-88
2022/02/15 00:23:05;;;;;;;87.60;43.80;;;;;;;-4.56;100.00;102217.07;1730384;82;21555;-89
2022/02/15 00:25:32;;;;;;;93.55;47.00;;;;;;;-4.63;100.00;102211.07;1726334;80;21618;-90
2022/02/15 00:27:59;;;;;;;93.07;43.42;;;;;;;-4.68;100.00;102212.67;1671049;85;21587;-90
2022/02/15 00:30:26;;;;;;;86.70;43.17;;;;;;;-4.72;100.00;102219.41;1678627;85;21038;-89
2022/02/15 00:32:53;;;;;;;95.28;47.10;;;;;;;-4.73;100.00;102213.91;1678607;84;21120;-90
2022/02/15 00:35:21;;;;;;;102.62;48.73;;;;;;;-4.76;100.00;102206.23;1649432;85;21077;-90
2022/02/15 00:37:50;;;;;;;95.77;45.05;;;;;;;-4.80;100.00;102212.08;1678167;85;21087;-85
2022/02/15 00:40:18;;;;;;;92.67;46.25;;;;;;;-4.90;100.00;102212.38;1678212;84;21649;-84
2022/02/15 00:42:47;;;;;;;88.87;43.87;;;;;;;-4.95;100.00;102208.92;1649051;85;21380;-84
2022/02/15 00:45:14;;;;;;;84.03;41.90;;;;;;;-4.98;100.00;102208.86;1677990;84;21189;-84
2022/02/15 00:47:42;;;;;;;77.27;37.40;;;;;;;-5.01;100.00;102204.59;1678082;85;21019;-83
2022/02/15 00:50:09;;;;;;;85.40;40.83;;;;;;;-5.01;100.00;102205.02;1689266;84;21067;-84
2022/02/15 00:52:37;;;;;;;81.82;36.98;;;;;;;-5.02;100.00;102201.61;1700681;84;21014;-83
2022/02/15 00:55:08;;;;;;;81.30;36.73;;;;;;;-5.03;100.00;102201.59;1700511;83;21062;-83
2022/02/15 00:57:39;;;;;;;82.92;39.80;;;;;;;-5.04;100.00;102199.45;1700525;83;22042;-83
2022/02/15 01:00:09;;;;;;;78.00;37.53;;;;;;;-5.05;100.00;102201.58;1700301;83;21563;-83
2022/02/15 01:02:36;;;;;;;74.67;36.20;;;;;;;-5.04;100.00;102198.61;1678433;84;21117;-84
2022/02/15 01:05:05;;;;;;;81.70;38.00;;;;;;;-5.04;100.00;102192.27;1700565;83;21857;-84
2022/02/15 01:07:32;;;;;;;81.40;39.75;;;;;;;-5.05;100.00;102192.69;1678625;84;21538;-90
2022/02/15 01:10:00;;;;;;;92.53;41.95;;;;;;;-5.05;100.00;102188.01;1700358;84;21968;-89
2022/02/15 01:12:27;;;;;;;84.83;42.75;;;;;;;-5.05;100.00;102189.28;1700602;83;21038;-88
2022/02/15 01:14:54;;;;;;;84.58;39.60;;;;;;;-5.07;100.00;102195.19;1678340;83;21094;-90
2022/02/15 01:17:21;;;;;;;80.30;38.50;;;;;;;-5.05;100.00;102193.09;1700524;83;21030;-89
2022/02/15 01:19:50;;;;;;;118.08;53.35;;;;;;;-5.00;100.00;102188.52;1700583;83;21063;-84
2022/02/15 01:22:17;;;;;;;103.87;46.15;;;;;;;-4.95;100.00;102189.86;1700457;83;21564;-84
2022/02/15 01:24:44;;;;;;;77.80;38.15;;;;;;;-4.94;100.00;102187.77;1700352;83;21003;-85
2022/02/15 01:27:11;;;;;;;70.97;35.75;;;;;;;-4.91;100.00;102193.74;1678486;84;21106;-85
2022/02/15 01:29:38;;;;;;;75.92;37.95;;;;;;;-4.89;100.00;102189.95;1700873;83;21059;-84
2022/02/15 01:32:07;;;;;;;91.02;43.70;;;;;;;-4.88;100.00;102191.66;1700385;83;21070;-83
2022/02/15 01:34:35;;;;;;;95.03;46.60;;;;;;;-4.89;100.00;102182.32;1700556;83;21164;-84
2022/02/15 01:37:02;;;;;;;129.12;59.27;;;;;;;-4.90;100.00;102189.50;1700434;83;21089;-84
2022/02/15 01:39:29;;;;;;;104.78;46.42;;;;;;;-4.91;100.00;102184.84;1700737;83;21201;-84
2022/02/15 01:41:56;;;;;;;126.40;55.63;;;;;;;-4.86;100.00;102184.05;1700432;84;21015;-84
2022/02/15 01:44:24;;;;;;;102.17;47.05;;;;;;;-4.77;100.00;102184.18;1700943;83;21110;-84
2022/02/15 01:46:52;;;;;;;104.43;46.63;;;;;;;-4.72;100.00;102191.88;1702259;80;21092;-86
2022/02/15 01:49:20;;;;;;;100.18;44.38;;;;;;;-4.71;100.00;102190.61;1713055;82;21129;-86
2022/02/15 01:51:47;;;;;;;118.17;51.90;;;;;;;-4.69;100.00;102190.66;1688867;83;21014;-84
2022/02/15 01:54:14;;;;;;;109.57;51.77;;;;;;;-4.69;100.00;102187.69;1713103;83;21547;-83
2022/02/15 01:56:43;;;;;;;116.75;53.40;;;;;;;-4.69;100.00;102190.66;1710594;83;21090;-85
2022/02/15 01:59:10;;;;;;;125.00;57.65;;;;;;;-4.69;100.00;102188.11;1675316;84;21088;-83
2022/02/15 02:01:38;;;;;;;138.43;61.15;;;;;;;-4.66;100.00;102191.95;1662674;86;21092;-83
2022/02/15 02:05:47;;;;;;;130.72;60.08;;;;;;;-4.66;100.00;102195.36;1645732;85;21032;-83
2022/02/15 02:06:36;;;;;;;110.80;51.10;;;;;;;-4.67;100.00;102194.92;1669890;85;21066;-82
2022/02/15 02:09:03;;;;;;;134.10;59.67;;;;;;;-4.64;100.00;102191.56;1670728;85;21077;-84
2022/02/15 02:11:31;;;;;;;135.35;61.02;;;;;;;-4.58;100.00;102191.63;1664621;85;21076;-84
2022/02/15 02:14:01;;;;;;;133.85;57.85;;;;;;;-4.58;100.00;102193.34;1641691;85;21062;-84
2022/02/15 02:16:33;;;;;;;149.57;67.50;;;;;;;-4.59;100.00;102192.47;1641718;85;21055;-86
2022/02/15 02:19:02;;;;;;;148.02;63.95;;;;;;;-4.60;100.00;102195.83;1649923;85;21560;-83
2022/02/15 02:21:39;;;;;;;161.12;68.35;;;;;;;-4.63;100.00;102195.38;1650155;85;21035;-83
2022/02/15 02:24:08;;;;;;;153.87;66.25;;;;;;;-4.63;100.00;102192.00;1674226;85;21172;-82
2022/02/15 02:26:35;;;;;;;161.40;69.67;;;;;;;-4.65;100.00;102192.39;1671001;85;21441;-84
2022/02/15 02:29:02;;;;;;;137.03;61.70;;;;;;;-4.66;100.00;102194.48;1683783;84;21612;-83
2022/02/15 02:31:31;;;;;;;154.82;67.35;;;;;;;-4.67;100.00;102188.56;1654218;84;21111;-83
2022/02/15 02:34:03;;;;;;;176.15;73.40;;;;;;;-4.66;100.00;102185.59;1654035;84;21048;-84
2022/02/15 02:36:44;;;;;;;151.25;68.05;;;;;;;-4.68;100.00;102190.66;1677196;84;21573;-83
2022/02/15 02:39:12;;;;;;;198.47;78.50;;;;;;;-4.71;100.00;102189.77;1653193;84;21009;-84
2022/02/15 02:41:39;;;;;;;175.78;73.17;;;;;;;-4.74;100.00;102188.05;1684115;84;21474;-89
2022/02/15 02:44:07;;;;;;;186.82;80.95;;;;;;;-4.78;100.00;102188.42;1677320;84;21067;-83
2022/02/15 02:46:34;;;;;;;157.03;69.67;;;;;;;-4.79;100.00;102184.56;1700658;81;21084;-84
2022/02/15 02:49:01;;;;;;;174.35;75.70;;;;;;;-4.80;100.00;102181.58;1742525;81;21130;-83
2022/02/15 02:51:29;;;;;;;154.15;66.97;;;;;;;-4.80;100.00;102190.08;1748313;80;21025;-83
2022/02/15 02:53:55;;;;;;;138.70;60.03;;;;;;;-4.82;100.00;102185.38;1748428;81;21108;-83
2022/02/15 02:56:23;;;;;;;147.95;66.60;;;;;;;-4.85;100.00;102187.90;1742928;81;21638;-86
2022/02/15 02:58:51;;;;;;;139.45;61.35;;;;;;;-4.88;100.00;102192.92;1744390;80;21029;-87
2022/02/15 03:01:18;;;;;;;156.30;68.90;;;;;;;-4.89;100.00;102193.76;1742693;81;21150;-85
2022/02/15 03:03:46;;;;;;;135.70;62.95;;;;;;;-4.90;100.00;102195.86;1767588;80;20998;-85
2022/02/15 03:06:13;;;;;;;136.88;58.30;;;;;;;-4.93;100.00;102186.50;1748553;81;21428;-86
2022/02/15 03:08:46;;;;;;;126.95;55.70;;;;;;;-4.95;100.00;102193.24;1742434;81;21030;-87
2022/02/15 03:11:13;;;;;;;119.37;54.38;;;;;;;-4.93;100.00;102197.10;1767959;80;21072;-84
2022/02/15 03:13:44;;;;;;;150.62;64.12;;;;;;;-4.94;100.00;102199.20;1746209;80;21100;-85
2022/02/15 03:16:13;;;;;;;158.12;67.08;;;;;;;-4.97;100.00;102200.41;1766941;80;21050;-84
2022/02/15 03:18:42;;;;;;;172.13;72.12;;;;;;;-5.04;100.00;102199.88;1745941;80;21231;-84
2022/02/15 03:21:11;;;;;;;178.05;73.07;;;;;;;-5.08;100.00;102193.91;1742267;81;21002;-84
2022/02/15 03:23:38;;;;;;;149.27;67.17;;;;;;;-5.11;100.00;102194.72;1742553;81;21097;-82
2022/02/15 03:26:06;;;;;;;164.20;72.53;;;;;;;-5.11;100.00;102195.98;1742347;81;22257;-83
2022/02/15 03:28:35;;;;;;;161.47;71.25;;;;;;;-5.08;100.00;102205.34;1742861;81;21057;-83
2022/02/15 03:31:03;;;;;;;154.55;65.90;;;;;;;-5.09;100.00;102191.76;1748029;81;21459;-86
2022/02/15 03:33:33;;;;;;;139.50;61.63;;;;;;;-5.07;100.00;102195.62;1745783;80;21046;-84
2022/02/15 03:36:02;;;;;;;138.07;60.28;;;;;;;-5.05;100.00;102194.36;1742379;82;21018;-86
2022/02/15 03:38:29;;;;;;;137.22;60.10;;;;;;;-5.07;100.00;102195.19;1742373;81;21127;-83
2022/02/15 03:43:30;;;;;;;128.30;57.90;;;;;;;-5.05;100.00;102196.90;1695843;81;21085;-84
2022/02/15 03:45:58;;;;;;;126.12;57.33;;;;;;;-5.03;100.00;102201.59;1741729;81;21006;-85
2022/02/15 03:48:28;;;;;;;119.08;55.70;;;;;;;-5.05;100.00;102196.90;1730492;80;20995;-84
2022/02/15 03:50:55;;;;;;;136.07;61.02;;;;;;;-5.07;100.00;102200.27;1751185;81;21062;-84
2022/02/15 03:53:23;;;;;;;144.97;59.75;;;;;;;-5.08;100.00;102197.71;1730831;82;22136;-84
2022/02/15 03:55:50;;;;;;;129.03;57.03;;;;;;;-5.14;100.00;102193.39;1726733;82;21023;-84
2022/02/15 03:58:18;;;;;;;135.70;61.13;;;;;;;-5.16;100.00;102193.77;1731038;81;21039;-83
2022/02/15 04:00:46;;;;;;;148.68;61.85;;;;;;;-5.18;100.00;102191.64;1726708;82;21075;-84
2022/02/15 04:03:14;;;;;;;125.65;57.13;;;;;;;-5.21;100.00;102183.13;1724944;81;21825;-89
2022/02/15 04:05:44;;;;;;;115.12;52.65;;;;;;;-5.19;100.00;102186.52;1726533;82;21593;-85
2022/02/15 04:08:12;;;;;;;112.10;50.38;;;;;;;-5.20;100.00;102192.03;1709503;81;21625;-85
2022/02/15 04:10:40;;;;;;;105.65;49.18;;;;;;;-5.20;100.00;102202.59;1701950;83;21073;-86
2022/02/15 04:13:10;;;;;;;122.50;52.23;;;;;;;-5.20;100.00;102199.65;1697917;81;21049;-85
2022/02/15 04:15:39;;;;;;;129.55;54.27;;;;;;;-5.19;100.00;102190.33;1687429;81;21167;-85
2022/02/15 04:18:06;;;;;;;120.80;52.83;;;;;;;-5.21;100.00;102181.85;1671519;84;21050;-87
2022/02/15 04:20:33;;;;;;;99.40;45.25;;;;;;;-5.22;100.00;102184.80;1694578;82;21054;-85
2022/02/15 04:23:01;;;;;;;103.78;48.42;;;;;;;-5.21;100.00;102187.77;1711979;83;21112;-84
2022/02/15 04:25:29;;;;;;;94.70;45.90;;;;;;;-5.16;100.00;102190.39;1708974;81;21090;-84
2022/02/15 04:27:58;;;;;;;102.70;49.65;;;;;;;-5.13;100.00;102191.72;1706728;82;21088;-86
2022/02/15 04:30:27;;;;;;;92.60;44.58;;;;;;;-5.14;100.00;102185.77;1746494;82;21078;-89
2022/02/15 04:32:55;;;;;;;91.08;45.45;;;;;;;-5.05;100.00;102193.96;1746563;81;21586;-89
2022/02/15 04:35:25;;;;;;;128.15;50.43;;;;;;;-5.00;100.00;102187.65;1672452;82;20962;-88
2022/02/15 04:37:54;;;;;;;220.60;61.15;;;;;;;-4.63;100.00;102181.83;1746638;82;21554;-91
2022/02/15 04:40:22;;;;;;;162.32;59.42;;;;;;;-3.13;100.00;102181.20;1719726;82;21053;-88
2022/02/15 04:42:49;;;;;;;122.45;52.15;;;;;;;-1.80;100.00;102185.59;1718922;82;21535;-84
2022/02/15 04:45:17;;;;;;;108.32;48.73;;;;;;;-1.51;100.00;102184.80;1746398;82;21069;-87
2022/02/15 04:47:46;;;;;;;113.57;53.05;;;;;;;-1.88;100.00;102193.27;1736116;81;21512;-83
2022/02/15 04:50:13;;;;;;;114.15;52.08;;;;;;;-2.39;100.00;102193.94;1733541;82;21081;-84
2022/02/15 04:52:43;;;;;;;96.75;48.33;;;;;;;-2.89;100.00;102199.22;1708528;82;21350;-91
2022/02/15 05:06:47;;;;;;;90.77;48.20;;;;;;;-4.05;100.00;102213.91;1789313;79;22343;-79
2022/02/15 05:09:16;;;;;;;90.35;44.90;;;;;;;-3.91;100.00;102207.27;1725826;82;21006;-79
2022/02/15 05:11:43;;;;;;;78.65;40.05;;;;;;;-3.93;100.00;102214.03;1747067;81;21821;-79
2022/02/15 05:14:11;;;;;;;84.92;41.73;;;;;;;-3.98;100.00;102215.25;1775981;79;21066;-80
2022/02/15 05:16:40;;;;;;;75.05;40.80;;;;;;;-3.99;100.00;102217.36;1775845;79;21058;-79
2022/02/15 05:19:21;;;;;;;79.15;38.80;;;;;;;-4.06;100.00;102221.95;1775837;80;21046;-80
2022/02/15 05:21:50;;;;;;;89.07;41.55;;;;;;;-4.10;100.00;102226.58;1778145;80;21502;-80
2022/02/15 05:24:17;;;;;;;98.42;46.77;;;;;;;-4.17;100.00;102223.09;1736950;80;21891;-80
2022/02/15 05:26:46;;;;;;;91.90;45.17;;;;;;;-4.23;100.00;102226.84;1763806;79;21038;-81
2022/02/15 05:29:15;;;;;;;94.22;42.98;;;;;;;-4.25;100.00;102222.15;1758984;80;21080;-82
2022/02/15 05:31:46;;;;;;;96.25;46.83;;;;;;;-4.28;100.00;102228.06;1777670;80;21681;-83
2022/02/15 05:34:13;;;;;;;101.53;50.70;;;;;;;-4.29;100.00;102231.44;1762014;80;21102;-82
2022/02/15 05:36:49;;;;;;;93.10;42.80;;;;;;;-4.27;100.00;102235.26;1753682;80;21060;-81
2022/02/15 05:39:17;;;;;;;93.92;45.15;;;;;;;-4.21;100.00;102237.91;1761127;80;21052;-81
2022/02/15 05:41:46;;;;;;;98.25;45.85;;;;;;;-4.06;100.00;102238.92;1775013;80;21056;-80
2022/02/15 05:44:31;;;;;;;114.90;53.25;;;;;;;-3.93;100.00;102245.02;1739163;80;21044;-80
2022/02/15 05:47:11;;;;;;;111.28;52.75;;;;;;;-3.80;100.00;102247.69;1769145;79;21021;-81
2022/02/15 05:52:27;;;;;;;108.15;52.03;;;;;;;-3.68;100.00;102250.78;1748769;81;21401;-81
2022/02/15 05:54:54;;;;;;;114.12;52.15;;;;;;;-3.58;100.00;102250.87;1735423;81;21538;-80
2022/02/15 05:57:21;;;;;;;109.55;53.55;;;;;;;-3.56;100.00;102253.03;1735606;81;21060;-80
2022/02/15 05:59:50;;;;;;;120.40;53.73;;;;;;;-3.49;100.00;102255.67;1761540;81;21037;-80
2022/02/15 06:02:19;;;;;;;106.20;52.60;;;;;;;-3.43;100.00;102254.01;1754426;81;21112;-80
2022/02/15 06:04:57;;;;;;;98.87;48.25;;;;;;;-3.32;100.00;102251.13;1699936;82;21088;-82
2022/02/15 06:07:30;;;;;;;109.63;51.98;;;;;;;-3.17;100.00;102255.51;1720165;81;21163;-80
2022/02/15 06:09:58;;;;;;;101.75;52.58;;;;;;;-3.05;100.00;102258.58;1726742;82;21032;-83
2022/02/15 06:12:25;;;;;;;101.22;47.38;;;;;;;-2.96;100.00;102257.78;1730730;82;21142;-80
2022/02/15 06:15:04;;;;;;;118.97;55.28;;;;;;;-2.86;100.00;102261.72;1727087;82;21156;-81
2022/02/15 06:17:33;;;;;;;126.38;58.35;;;;;;;-2.76;100.00;102256.25;1753550;81;21096;-81
2022/02/15 06:20:00;;;;;;;131.70;59.13;;;;;;;-2.72;100.00;102266.05;1730383;81;21598;-81
2022/02/15 06:22:29;;;;;;;117.42;54.95;;;;;;;-2.72;100.00;102262.22;1753406;81;21072;-84
2022/02/15 06:24:57;;;;;;;115.60;54.73;;;;;;;-2.70;100.00;102264.37;1757365;81;21088;-84
2022/02/15 06:27:26;;;;;;;104.78;51.37;;;;;;;-2.65;100.00;102267.80;1753702;81;21112;-81
2022/02/15 06:29:55;;;;;;;101.50;46.95;;;;;;;-2.64;100.00;102266.95;1696698;81;21080;-82
2022/02/15 06:32:25;;;;;;;89.32;44.77;;;;;;;-2.60;100.00;102262.28;1753571;81;21068;-81
2022/02/15 06:34:52;;;;;;;97.90;46.63;;;;;;;-2.52;100.00;102268.73;1757407;81;21068;-81
2022/02/15 06:37:20;;;;;;;78.55;40.43;;;;;;;-2.44;100.00;102272.18;1757651;81;21096;-80
2022/02/15 06:39:49;;;;;;;79.72;38.90;;;;;;;-2.40;100.00;102260.29;1728185;81;21845;-80
2022/02/15 06:42:18;;;;;;;81.22;38.48;;;;;;;-2.35;100.00;102262.87;1757934;81;20993;-80
2022/02/15 06:44:46;;;;;;;72.45;36.08;;;;;;;-2.27;100.00;102259.93;1757389;81;21041;-80
2022/02/15 06:47:14;;;;;;;68.55;35.50;;;;;;;-2.14;100.00;102259.56;1730991;81;21049;-81
2022/02/15 06:49:42;;;;;;;76.67;37.00;;;;;;;-2.02;100.00;102254.50;1730522;81;21549;-81
2022/02/15 06:52:13;;;;;;;66.20;34.40;;;;;;;-1.88;100.00;102257.55;1755631;81;21821;-83
2022/02/15 06:54:40;;;;;;;64.82;32.03;;;;;;;-1.78;100.00;102259.25;1757495;81;21676;-82
2022/02/15 06:57:09;;;;;;;70.95;33.48;;;;;;;-1.69;100.00;102258.01;1757671;81;21697;-82
2022/02/15 06:59:36;;;;;;;59.77;29.27;;;;;;;-1.62;100.00;102252.50;1757361;81;21491;-83
2022/02/15 07:02:04;;;;;;;55.23;30.48;;;;;;;-1.53;100.00;102250.37;1757348;81;21128;-82
2022/02/15 07:04:33;;;;;;;53.02;28.92;;;;;;;-1.44;100.00;102251.66;1753226;81;21252;-81
2022/02/15 07:07:02;;;;;;;55.63;29.95;;;;;;;-1.37;100.00;102247.42;1755081;81;21979;-80
2022/02/15 07:09:31;;;;;;;48.63;27.80;;;;;;;-1.33;100.00;102255.10;1754997;81;21030;-82
2022/02/15 07:12:11;;;;;;;;;;;;;;;-1.23;100.00;102250.84;1754139;81;21092;-84
2022/02/15 07:14:48;;;;;;;50.15;25.77;;;;;;;-1.15;100.00;102250.41;1751603;81;20138;-81
2022/02/15 07:17:16;;;;;;;54.15;26.60;;;;;;;-1.07;100.00;102250.39;1730223;81;21835;-81
2022/02/15 07:19:44;;;;;;;48.90;25.30;;;;;;;-1.04;100.00;102246.57;1754954;81;21506;-81
2022/02/15 07:22:24;;;;;;;47.65;25.37;;;;;;;-0.95;100.00;102245.70;1714386;81;21030;-82
2022/02/15 07:24:56;;;;;;;48.20;24.10;;;;;;;-0.84;100.00;102248.28;1739347;81;21043;-81
2022/02/15 07:27:32;;;;;;;42.45;23.70;;;;;;;-0.76;100.00;102250.36;1753767;81;21021;-81
2022/02/15 07:30:00;;;;;;;44.10;22.65;;;;;;;-0.69;100.00;102245.69;1755339;81;21609;-82
2022/02/15 07:32:29;;;;;;;45.58;22.85;;;;;;;-0.60;100.00;102242.69;1751292;81;21045;-85
2022/02/15 07:34:56;;;;;;;46.88;22.55;;;;;;;-0.53;100.00;102236.70;1730224;81;21129;-85
2022/02/15 07:37:26;;;;;;;37.05;21.20;;;;;;;-0.47;100.00;102243.07;1754909;81;21061;-85
2022/02/15 07:39:53;;;;;;;39.05;20.90;;;;;;;-0.39;100.00;102243.91;1755353;81;21072;-82
2022/02/15 07:42:20;;;;;;;30.80;18.52;;;;;;;-0.32;100.00;102238.31;1754689;81;21133;-82
2022/02/15 07:44:48;;;;;;;32.63;18.10;;;;;;;-0.23;100.00;102231.88;1730464;81;21072;-82
2022/02/15 07:47:16;;;;;;;41.05;19.40;;;;;;;-0.15;100.00;102235.70;1754801;81;22378;-82
2022/02/15 07:49:43;;;;;;;35.85;19.02;;;;;;;-0.08;100.00;102233.53;1755347;81;21069;-82
2022/02/15 07:52:10;;;;;;;28.02;16.87;;;;;;;0.01;100.00;102233.07;1754895;81;21080;-81
2022/02/15 07:54:38;;;;;;;26.48;15.85;;;;;;;0.10;100.00;102233.03;1755050;81;21155;-81
2022/02/15 07:57:06;;;;;;;28.00;16.05;;;;;;;0.22;100.00;102227.82;1754853;81;21061;-81
2022/02/15 07:59:35;;;;;;;32.38;18.10;;;;;;;0.33;100.00;102227.75;1754386;81;21049;-81
2022/02/15 08:02:04;;;;;;;38.98;18.45;;;;;;;0.41;100.00;102225.16;1755169;81;21005;-81
2022/02/15 08:04:31;;;;;;;39.45;22.40;;;;;;;0.50;100.00;102225.09;1755507;81;21056;-81
2022/02/15 08:07:03;;;;;;;39.20;20.77;;;;;;;0.60;100.00;102227.98;1731781;81;22086;-81
2022/02/15 08:09:28;;;;;;;36.77;18.40;;;;;;;0.71;100.00;102227.93;1754224;81;20946;-80
2022/02/15 08:11:57;;;;;;;35.05;18.30;;;;;;;0.85;100.00;102221.38;1757804;81;21002;-81
2022/02/15 08:14:26;;;;;;;35.10;19.15;;;;;;;0.99;100.00;102221.70;1757765;81;21164;-80
2022/02/15 08:16:54;;;;;;;29.60;16.62;;;;;;;1.07;100.00;102223.77;1757766;81;21056;-80
2022/02/15 08:19:26;;;;;;;30.17;17.90;;;;;;;1.20;100.00;102225.34;1757739;81;21092;-79
2022/02/15 08:21:50;;;;;;;29.15;16.57;;;;;;;1.29;100.00;102220.53;1729845;81;21503;-84
2022/02/15 08:24:18;;;;;;;24.47;13.58;;;;;;;1.39;100.00;102226.00;1732699;81;21044;-83
2022/02/15 08:26:44;;;;;;;20.65;12.33;;;;;;;1.51;100.00;102222.89;1757742;81;21017;-84
2022/02/15 08:29:12;;;;;;;21.65;11.68;;;;;;;1.59;100.00;102215.95;1757810;81;21033;-82
2022/02/15 08:31:39;;;;;;;19.60;11.68;;;;;;;1.65;100.00;102212.02;1757653;81;21157;-83
2022/02/15 08:34:06;;;;;;;22.07;12.40;;;;;;;1.73;100.00;102216.63;1757773;81;21069;-85
2022/02/15 08:36:33;;;;;;;18.62;11.08;;;;;;;1.82;100.00;102214.36;1732970;81;21062;-85
2022/02/15 08:39:00;;;;;;;19.70;11.50;;;;;;;1.87;100.00;102204.90;1757708;81;21088;-83
2022/02/15 08:41:27;;;;;;;20.25;11.45;;;;;;;1.93;100.00;102205.23;1757970;81;21565;-85
2022/02/15 08:43:54;;;;;;;21.80;12.50;;;;;;;2.00;100.00;102203.44;1757659;81;21138;-84
2022/02/15 08:46:21;;;;;;;21.73;12.03;;;;;;;2.09;100.00;102208.45;1759363;81;21021;-85
2022/02/15 08:48:49;;;;;;;19.77;11.75;;;;;;;2.17;100.00;102210.89;1732551;81;21068;-82
2022/02/15 08:51:19;;;;;;;15.25;9.45;;;;;;;2.25;100.00;102203.92;1732669;81;21068;-80
2022/02/15 08:53:49;;;;;;;19.40;9.95;;;;;;;2.33;100.00;102205.11;1757766;81;21001;-80
2022/02/15 08:56:18;;;;;;;15.18;8.68;;;;;;;2.42;100.00;102200.25;1757820;81;21118;-80
2022/02/15 08:58:45;;;;;;;14.40;8.05;;;;;;;2.52;100.00;102197.50;1731557;81;21085;-79
2022/02/15 09:01:12;;;;;;;15.05;9.03;;;;;;;2.60;100.00;102183.70;1758041;81;21567;-81
2022/02/15 09:03:40;;;;;;;13.15;8.28;;;;;;;2.73;100.00;102186.47;1757782;81;21022;-82
2022/02/15 09:06:07;;;;;;;16.07;8.38;;;;;;;2.73;100.00;102186.47;1757746;81;21120;-81
2022/02/15 09:08:36;;;;;;;14.10;8.25;;;;;;;2.80;100.00;102182.91;1730203;81;21112;-81
2022/02/15 09:11:03;;;;;;;13.65;8.45;;;;;;;2.90;100.00;102182.30;1757136;81;21084;-82
2022/02/15 09:13:32;;;;;;;13.00;7.00;;;;;;;2.99;100.00;102176.16;1730279;81;21592;-81
2022/02/15 09:15:59;;;;;;;13.22;7.33;;;;;;;3.05;100.00;102160.59;1757729;81;21017;-81
2022/02/15 09:18:27;;;;;;;17.55;7.03;;;;;;;3.18;100.00;102161.22;1730382;81;21427;-82
2022/02/15 09:20:54;;;;;;;14.47;7.72;;;;;;;3.26;100.00;102157.19;1757575;81;21802;-82
2022/02/15 09:23:21;;;;;;;15.13;7.08;;;;;;;3.33;100.00;102156.19;1757404;81;21048;-82
2022/02/15 09:25:50;;;;;;;21.45;7.78;;;;;;;3.37;100.00;102155.69;1757460;81;21179;-80
2022/02/15 09:28:17;;;;;;;39.05;8.68;;;;;;;3.44;100.00;102146.98;1730491;81;21550;-81
2022/02/15 09:30:44;;;;;;;25.25;8.58;;;;;;;3.56;100.00;102144.59;1757696;81;21056;-82
2022/02/15 09:33:11;;;;;;;14.23;8.40;;;;;;;3.73;100.00;102145.05;1757497;81;21130;-82
2022/02/15 09:35:38;;;;;;;29.27;9.00;;;;;;;3.85;100.00;102147.80;1757053;81;21019;-85
2022/02/15 09:38:05;;;;;;;30.88;9.08;;;;;;;3.91;100.00;102143.81;1757463;81;21053;-86
2022/02/15 09:40:32;;;;;;;33.63;9.23;;;;;;;4.05;100.00;102143.93;1730568;81;21077;-85
2022/02/15 09:42:59;;;;;;;16.97;8.28;;;;;;;4.18;100.00;102140.62;1757483;81;21068;-83
2022/02/15 09:45:26;;;;;;;14.45;8.33;;;;;;;4.25;100.00;102135.72;1730782;81;21591;-83
2022/02/15 09:47:54;;;;;;;17.00;8.10;;;;;;;4.26;100.00;102133.55;1757654;81;21001;-84
2022/02/15 09:50:23;;;;;;;12.68;8.10;;;;;;;4.28;100.00;102135.66;1757684;81;21483;-84
2022/02/15 09:52:51;;;;;;;13.58;7.78;;;;;;;4.24;100.00;102126.28;1757732;81;21412;-86
2022/02/15 09:55:18;;;;;;;14.07;8.00;;;;;;;4.22;100.00;102125.05;1757597;81;21589;-86
2022/02/15 09:57:44;;;;;;;15.10;7.47;;;;;;;4.24;100.00;102122.42;1730879;81;21157;-86
2022/02/15 10:00:12;;;;;;;13.38;7.42;;;;;;;4.23;100.00;102123.30;1757514;81;21020;-87
2022/02/15 10:02:43;;;;;;;13.58;6.50;;;;;;;4.22;100.00;102115.16;1757607;81;21048;-84
2022/02/15 10:05:16;;;;;;;8.83;5.87;;;;;;;4.23;100.00;102115.14;1757272;81;21009;-85
2022/02/15 10:07:54;;;;;;;9.93;6.12;;;;;;;4.24;100.00;102111.68;1731929;81;21072;-85
2022/02/15 10:10:34;;;;;;;7.83;5.37;;;;;;;4.29;100.00;102105.55;1757886;81;21119;-88
2022/02/15 10:13:09;;;;;;;9.90;5.03;;;;;;;4.33;100.00;102105.44;1758108;81;21499;-84
2022/02/15 10:15:41;;;;;;;9.38;5.12;;;;;;;4.40;100.00;102102.27;1757946;81;21047;-85
2022/02/15 10:18:22;;;;;;;11.40;5.87;;;;;;;4.46;100.00;102098.23;1754884;81;21058;-86
2022/02/15 10:20:56;;;;;;;8.88;5.22;;;;;;;4.50;100.00;102095.97;1755365;81;21107;-87
2022/02/15 10:23:29;;;;;;;13.18;5.62;;;;;;;4.53;100.00;102086.88;1732851;81;21146;-83
2022/02/15 10:25:58;;;;;;;10.05;5.90;;;;;;;4.60;100.00;102084.98;1757586;81;21084;-85
2022/02/15 10:28:30;;;;;;;11.35;5.65;;;;;;;4.66;100.00;102074.92;1732713;81;21576;-85
2022/02/15 10:31:01;;;;;;;10.32;6.08;;;;;;;4.69;100.00;102076.97;1757912;81;21068;-84
2022/02/15 10:33:35;;;;;;;12.78;5.40;;;;;;;4.71;100.00;102072.62;1758106;81;21061;-85
2022/02/15 10:36:13;;;;;;;9.03;4.78;;;;;;;4.72;100.00;102069.62;1757782;81;21171;-83
2022/02/15 10:38:45;;;;;;;8.03;4.35;;;;;;;4.76;100.00;102069.09;1757707;81;21029;-85
2022/02/15 10:41:16;;;;;;;7.65;3.72;;;;;;;4.79;100.00;102066.41;1758059;81;21112;-84
2022/02/15 10:43:54;;;;;;;;;;;;;;;4.85;100.00;102066.23;1734316;81;21107;-84
2022/02/15 10:46:24;;;;;;;5.05;3.30;;;;;;;4.93;99.47;102066.03;1758134;81;20213;-84
2022/02/15 10:48:53;;;;;;;4.85;3.00;;;;;;;4.97;84.23;102062.03;1758179;81;21857;-87
2022/02/15 10:51:21;;;;;;;7.03;3.37;;;;;;;5.01;91.10;102062.33;1758008;81;21061;-84
2022/02/15 10:53:48;;;;;;;5.45;3.10;;;;;;;5.07;92.55;102061.77;1757451;81;21022;-84
2022/02/15 10:56:16;;;;;;;7.47;3.83;;;;;;;5.10;95.16;102060.37;1757817;81;21054;-84
2022/02/15 10:58:47;;;;;;;4.50;3.25;;;;;;;5.15;98.12;102054.65;1757771;81;21025;-84
2022/02/15 11:01:14;;;;;;;6.83;3.50;;;;;;;5.21;99.71;102051.42;1758095;81;24939;-84
2022/02/15 11:03:42;;;;;;;6.45;3.02;;;;;;;5.26;95.93;102049.16;1757690;81;20981;-85
2022/02/15 11:06:10;;;;;;;4.47;3.22;;;;;;;5.26;81.29;102048.70;1757907;81;20970;-85
2022/02/15 11:08:41;;;;;;;6.45;3.20;;;;;;;5.25;84.60;102041.84;1755070;81;21029;-84
2022/02/15 11:11:19;;;;;;;6.65;3.08;;;;;;;5.27;88.00;102044.40;1758566;80;21761;-84
2022/02/15 11:13:47;;;;;;;5.72;3.08;;;;;;;5.28;86.89;102035.77;1783742;80;21217;-85
2022/02/15 11:16:18;;;;;;;6.25;3.37;;;;;;;5.30;83.93;102034.82;1756104;80;21052;-85
2022/02/15 11:18:46;;;;;;;4.33;2.90;;;;;;;5.31;79.68;102035.66;1784852;79;21563;-84
2022/02/15 11:21:25;;;;;;;7.08;3.47;;;;;;;5.28;83.87;102031.43;1786168;79;21530;-84
2022/02/15 11:24:03;;;;;;;4.12;2.65;;;;;;;5.28;80.03;102021.56;1784667;79;21116;-85
2022/02/15 11:26:42;;;;;;;4.00;2.58;;;;;;;5.27;68.29;102021.98;1757346;80;21567;-85
2022/02/15 11:29:26;;;;;;;5.67;2.50;;;;;;;5.26;63.46;102025.45;1761580;80;21061;-85